AirNav   Air Wisconsin Up To $57,000 Bonus
 
 949 users online  

19MO North Patrol Div Station Heliport
Kansas City, Missouri, USA

GOING TO KANSAS CITY?


FAA INFORMATION EFFECTIVE 05 DECEMBER 2019

Location

FAA Identifier: 19MO
Lat/Long: 39-14-40.0070N 094-35-20.8400W
39-14.666783N 094-35.347333W
39.2444464,-94.5891222
(estimated)
Elevation: 955 ft. / 291 m (estimated)
Variation: 05E (1985)
Time zone: UTC -6 (UTC -5 during Daylight Saving Time)
Zip code: 64118

Heliport Operations

Heliport use: Private use. Permission required prior to landing
Activation date: 07/1977
Control tower: no
ARTCC: KANSAS CITY CENTER
FSS: COLUMBIA FLIGHT SERVICE STATION
Attendance: UNATNDD
Wind indicator: yes
Segmented circle: no

Heliport Communications

WX ASOS at MCI (7 nm NW): 128.375 (816-329-2808)
WX ASOS at MKC (7 nm S): PHONE 816-329-2843
WX AWOS-3 at GPH (14 nm E): 120.275 (816-407-3399)
WX ASOS at LXT (20 nm SE): 124.175 (816-347-9807)

Nearby radio navigation aids

VOR radial/distance  VOR name  Freq  Var
MCIr105/7.3KANSAS CITY VORTAC113.2505E
ANXr286/23.2NAPOLEON VORTAC114.0007E

Heliport Services

Runway Information

Helipad H1

Dimensions: 15 x 15 ft. / 5 x 5 m
Surface: concrete
Latitude: 39-14.666833N
Longitude: 094-35.347333W
Elevation: 955.0 ft.
Traffic pattern: leftleft

Heliport Ownership and Management from official FAA records

Ownership: Publicly-owned
Owner: KANSAS CITY MO POLICE DEP
1125 LOCUST
KANSAS CITY, MO 64106
Phone 816-234-5540
Manager: SHAWN NICHOLS
4601 EASTERN
KANSAS CITY, MO 64106
Phone 816-929-2700

Heliport Operational Statistics

Aircraft based on the field: 3
Helicopters: 3
    

Additional Remarks

A52-H1 +170 FT TWR 80 FT W; 30 FT FLAG POLE 125 FT SW; 45 FT PLINES RUNNING E/W 250 FT N OF HELIPAD.
OWNER DESIRES ARPT NOT BE CHARTED.
FOR CD CTC KANSAS CITY APCH AT 816-329-2710.

Instrument Procedures

There are no published instrument procedures at 19MO.

Some nearby airports with instrument procedures:

KMCI - Kansas City International Airport (7 nm NW)
KMKC - Charles B Wheeler Downtown Airport (7 nm S)
KGPH - Midwest National Air Center Airport (14 nm E)
KFLV - Sherman Army Airfield (17 nm NW)
3EX - Excelsior Springs Memorial Airport (19 nm E)
KLXT - Lee's Summit Municipal Airport (20 nm SE)
 
Loc | Ops | Rwys | IFR | FBO | Links
Com | Nav | Svcs | Stats | Notes

Kansas City Aviation Department
 
Area around 19MO (North Patrol Div Station Heliport)
 
Road maps at: MapQuest Bing Google
 
Aerial photo
No photo
 
Sectional chart

 
Airport distance calculator
Flying to North Patrol Div Station Heliport? Find the distance to fly.

From to 19MO

Sunrise and sunset
Times for 12-Dec-2019
 Local
(UTC-6)
 Zulu
(UTC)
Morning civil twilight07:0013:00
Sunrise07:3013:30
Sunset16:5522:55
Evening civil twilight17:2523:25

Current date and time
Zulu (UTC)  12-Dec-2019 23:35:38
Local (UTC-6)  12-Dec-2019 17:35:38
 
METAR
KMCI 
7nm NW 
122253Z 22005KT 10SM BKN038 OVC200 09/00 A3002 RMK AO2 SLP168 T00890000
KMKC 
8nm S 
122254Z 21006KT 10SM BKN040 08/M01 A3003 RMK AO2 SLP170 T00781011
KGPH 
14nm E 
122315Z AUTO 00000KT 10SM BKN042 08/M01 A3004 RMK AO2
KLXT 
20nm SE 
122253Z AUTO 22006KT 10SM FEW047 08/M02 A3003 RMK AO2 SLP174 T00831017
TAF
KMCI 
7nm NW 
121734Z 1218/1318 22015G30KT P6SM BKN035 OVC050 FM122100 20014KT P6SM SCT120 FM130000 18005KT P6SM BKN120
KMKC 
8nm S 
121734Z 1218/1318 22015G25KT P6SM BKN040 OVC050 FM122100 20014KT P6SM SCT120 FM130000 18005KT P6SM BKN120
NOTAMs
Click for the latest NOTAMs
NOTAMs are issued by the DoD/FAA and will open in a separate window not controlled by AirNav.

 

 
 

Would you like to see your business listed on this page?

 If your business provides an interesting product or service to pilots, flight crews, aircraft, or users of the North Patrol Div Station Heliport, you should consider listing it here.  To start the listing process, click on the button below
 
Add a business
 

Other Pages about North Patrol Div Station Heliport

Update a link
 
Copyright © AirNav, LLC. All rights reserved. Privacy Policy  Contact